Time;durP1;ratioP1;P1;durP2;ratioP2;P2;SDS_P1;SDS_P2;PMS_P1;PMS_P2;Temp;Humidity;BMP_temperature;BMP_pressure;BME280_temperature;BME280_humidity;BME280_pressure;Samples;Min_cycle;Max_cycle;Signal;HPM_P1;HPM_P2
2023/12/18 00:01:12;;;;;;;24.65;8.80;;;;;;;7.99;97.38;102147.88;6070008;23;20411;-89
2023/12/18 00:08:12;;;;;;;;;;;;;;;;;;;;;
2023/12/18 00:11:03;;;;;;;33.65;8.55;;;9.40;99.90;;;8.08;98.11;102146.00;6141855;22;20415;-88
2023/12/18 00:13:45;;;;;;;26.48;7.38;;;;;;;8.07;98.25;102144.28;6223823;22;20081;-89
2023/12/18 00:20:52;;;;;;;31.40;7.38;;;9.40;99.90;;;8.01;97.87;102139.97;6277105;22;20065;-90
2023/12/18 00:23:21;;;;;;;27.13;6.97;;;;;;;7.99;98.08;102134.75;6187526;23;20016;-89
2023/12/18 00:26:31;;;;;;;24.85;6.65;;;9.40;99.90;;;8.02;97.88;102125.97;6188044;23;20019;-90
2023/12/18 00:32:34;;;;;;;;;;;;;;;;;;;;;
2023/12/18 00:36:04;;;;;;;25.58;6.38;;;9.40;99.90;;;8.06;98.17;102118.94;6182811;23;20112;-89
2023/12/18 00:38:59;;;;;;;19.58;5.72;;;;;;;7.95;98.59;102122.56;6065845;23;20447;-91
2023/12/18 00:41:41;;;;;;;26.15;7.45;;;;;;;7.95;98.60;102106.84;6065929;23;20023;-91
2023/12/18 00:44:22;;;;;;;22.95;7.15;;;;;;;7.99;99.03;102108.53;6065097;23;20375;-90
2023/12/18 00:47:47;;;;;;;;;;;;;;;;;;;;;
2023/12/18 00:53:16;;;;;;;;;;;9.40;99.90;;;7.99;98.60;102105.00;5897784;24;20009;-89
2023/12/18 00:55:53;;;;;;;26.17;7.22;;;9.40;99.90;;;8.02;98.44;102110.22;5899030;24;19919;-89
2023/12/18 00:58:31;;;;;;;22.27;6.35;;;;;;;8.05;98.27;102104.94;5897591;24;20052;-87
2023/12/18 01:01:42;;;;;;;32.47;7.50;;;9.40;99.90;;;8.00;98.19;102094.50;5897416;24;20096;-88
2023/12/18 01:04:23;;;;;;;24.15;7.03;;;;;;;8.04;98.72;102095.34;5896702;24;20010;-88
2023/12/18 01:07:51;;;;;;;31.75;6.82;;;9.40;99.90;;;8.01;98.95;102098.88;5945453;24;20088;-90
2023/12/18 01:10:41;;;;;;;24.92;6.80;;;;;;;7.95;98.75;102088.47;5929470;24;20012;-88
2023/12/18 01:13:42;;;;;;;26.50;5.57;;;;;;;7.93;98.63;102081.50;5973770;24;20012;-88
2023/12/18 01:16:20;;;;;;;26.65;6.47;;;9.30;99.90;;;7.91;99.03;102085.91;5981359;24;20570;-89
2023/12/18 01:18:46;;;;;;;25.15;5.63;;;9.30;99.90;;;7.87;98.87;102077.22;5981947;24;20016;-87
2023/12/18 01:21:14;;;;;;;23.35;5.85;;;;;;;7.92;98.72;102077.16;5980905;24;20008;-87
2023/12/18 01:23:52;;;;;;;25.83;6.05;;;;;;;7.94;98.73;102073.59;5982518;23;20352;-87
2023/12/18 01:26:44;;;;;;;24.35;6.10;;;9.30;99.90;;;7.89;98.52;102067.56;5986062;23;20020;-87
2023/12/18 01:29:12;;;;;;;24.55;5.45;;;9.30;99.90;;;7.91;98.90;102075.44;6019649;23;20011;-88
2023/12/18 01:35:04;;;;;;;25.92;5.88;;;9.30;99.90;;;7.90;99.03;102073.66;6216840;22;20649;-80
2023/12/18 01:37:40;;;;;;;22.83;5.72;;;9.30;99.90;;;7.90;98.34;102069.28;6275023;22;20003;-80
2023/12/18 01:40:07;;;;;;;20.98;5.43;;;9.20;99.90;;;7.90;98.45;102073.66;6251567;22;20436;-81
2023/12/18 01:42:33;;;;;;;27.70;6.00;;;9.30;99.90;;;7.92;98.06;102067.50;6248918;22;20015;-80
2023/12/18 01:45:19;;;;;;;22.33;5.95;;;9.30;99.90;;;7.94;98.08;102070.97;6250584;22;20455;-79
2023/12/18 01:47:48;;;;;;;18.80;5.13;;;9.30;99.90;;;7.90;98.08;102061.41;6250399;22;20007;-81
2023/12/18 01:50:17;;;;;;;17.70;4.97;;;9.30;99.90;;;7.94;97.96;102057.88;6276786;22;19999;-79
2023/12/18 01:52:52;;;;;;;27.27;6.18;;;9.30;99.90;;;7.97;98.29;102063.09;6277419;22;20018;-80
2023/12/18 01:55:20;;;;;;;23.77;6.03;;;9.30;99.90;;;7.99;97.87;102063.94;6249016;22;20480;-80
2023/12/18 01:58:01;;;;;;;18.95;4.90;;;9.30;99.90;;;7.97;97.84;102057.84;6224627;22;20004;-80
2023/12/18 02:00:38;;;;;;;18.77;4.90;;;9.30;99.90;;;7.95;97.63;102064.88;6278607;22;20041;-80
2023/12/18 02:03:05;;;;;;;19.17;5.43;;;9.30;99.90;;;7.93;98.05;102056.16;6274706;22;20000;-79
2023/12/18 02:05:39;;;;;;;24.05;5.78;;;9.30;99.90;;;7.94;98.32;102076.22;6249934;22;20004;-80
2023/12/18 02:08:08;;;;;;;26.27;6.63;;;9.30;99.90;;;7.94;98.04;102073.59;6248574;22;20003;-80
2023/12/18 02:10:42;;;;;;;37.13;6.80;;;9.30;99.90;;;7.94;98.67;102064.88;6275706;22;20008;-79
2023/12/18 02:13:10;;;;;;;21.33;5.60;;;9.30;99.90;;;7.94;98.30;102068.34;6250631;22;20008;-80
2023/12/18 02:15:36;;;;;;;29.92;5.88;;;9.30;99.90;;;7.92;98.59;102062.25;6275856;22;20506;-79
2023/12/18 02:18:11;;;;;;;30.10;6.00;;;9.30;99.90;;;7.98;98.19;102075.28;6276243;22;20011;-79
2023/12/18 02:20:41;;;;;;;27.15;6.35;;;9.30;99.90;;;7.95;97.97;102069.25;6249219;22;20008;-82
2023/12/18 02:23:16;;;;;;;23.30;5.93;;;9.30;99.90;;;7.97;98.19;102068.34;6274693;22;20463;-83
2023/12/18 02:25:42;;;;;;;22.70;6.15;;;9.30;99.90;;;7.94;98.62;102055.25;6274846;22;20007;-83
2023/12/18 02:28:19;;;;;;;31.20;5.65;;;9.30;99.90;;;7.93;98.57;102068.41;6249207;22;20030;-84
2023/12/18 02:30:45;;;;;;;22.10;5.75;;;9.30;99.90;;;7.89;98.47;102066.72;6275182;22;20010;-82
2023/12/18 02:33:11;;;;;;;29.75;6.20;;;9.30;99.90;;;7.90;99.02;102073.66;6275495;22;20474;-83
2023/12/18 02:35:47;;;;;;;24.30;6.25;;;9.30;99.90;;;7.92;98.88;102066.66;6248517;22;20008;-83
2023/12/18 02:38:13;;;;;;;24.25;5.68;;;9.30;99.90;;;7.90;98.47;102069.28;6273541;22;20007;-82
2023/12/18 02:40:40;;;;;;;24.30;5.75;;;9.30;99.90;;;7.90;98.60;102071.91;6275426;22;20054;-82
2023/12/18 02:43:11;;;;;;;29.00;6.32;;;9.20;99.90;;;7.91;98.83;102062.31;6274430;22;20004;-83
2023/12/18 02:45:37;;;;;;;22.70;6.05;;;9.20;99.90;;;7.91;98.92;102055.31;6249203;22;20067;-83
2023/12/18 02:48:04;;;;;;;19.80;6.30;;;9.30;99.90;;;7.90;98.83;102052.69;6276229;22;20082;-79
2023/12/18 02:50:30;;;;;;;22.13;6.03;;;9.30;99.90;;;7.90;98.56;102056.19;6223835;22;20386;-81
2023/12/18 02:52:56;;;;;;;27.40;6.53;;;9.30;99.90;;;7.92;98.45;102051.78;6275417;22;20004;-79
2023/12/18 02:55:21;;;;;;;28.08;6.10;;;9.30;99.90;;;7.93;98.58;102044.78;6248358;22;20014;-82
2023/12/18 02:57:57;;;;;;;37.65;6.30;;;9.30;99.90;;;7.95;98.91;102057.00;6276373;22;20356;-83
2023/12/18 03:00:22;;;;;;;32.37;6.33;;;9.30;99.90;;;7.95;98.38;102058.75;6276142;22;20042;-82
2023/12/18 03:02:55;;;;;;;27.67;6.88;;;9.30;99.90;;;7.93;98.62;102058.78;6249641;22;20408;-82
2023/12/18 03:05:20;;;;;;;26.15;5.90;;;9.30;99.90;;;7.95;98.62;102056.13;6249285;22;20007;-83
2023/12/18 03:07:46;;;;;;;23.98;6.22;;;9.30;99.90;;;7.94;98.73;102046.50;6248326;22;20081;-82
2023/12/18 03:10:12;;;;;;;27.13;6.95;;;9.30;99.90;;;7.94;98.53;102052.63;6275796;22;20085;-82
2023/12/18 03:12:38;;;;;;;22.15;6.78;;;9.30;99.90;;;7.97;98.62;102054.38;6223247;22;20065;-81
2023/12/18 03:15:13;;;;;;;22.65;5.78;;;9.30;99.90;;;7.95;98.68;102056.13;6275811;22;20465;-82
2023/12/18 03:17:39;;;;;;;23.98;5.70;;;9.30;99.90;;;7.92;98.95;102040.44;6275820;22;20003;-82
2023/12/18 03:20:06;;;;;;;25.58;6.55;;;9.30;99.90;;;7.92;98.99;102040.44;6248969;22;20034;-83
2023/12/18 03:22:32;;;;;;;24.90;6.15;;;9.30;99.90;;;7.91;99.35;102049.19;6247932;22;20014;-82
2023/12/18 03:25:07;;;;;;;22.92;6.45;;;9.30;99.90;;;7.90;99.40;102040.44;6278131;22;20003;-82
2023/12/18 03:27:33;;;;;;;25.77;6.50;;;9.20;99.90;;;7.93;99.36;102037.78;6279827;22;20062;-82
2023/12/18 03:29:59;;;;;;;22.48;6.13;;;9.30;99.90;;;7.89;99.28;102022.97;6252966;22;20007;-83
2023/12/18 03:32:25;;;;;;;24.88;6.45;;;9.20;99.90;;;7.88;99.64;102028.25;6278299;22;20012;-82
2023/12/18 03:34:58;;;;;;;30.85;7.25;;;9.20;99.90;;;7.88;99.80;102028.25;6279377;22;20436;-83
2023/12/18 03:37:26;;;;;;;27.42;6.82;;;9.20;99.90;;;7.90;99.92;102023.84;6279050;22;20000;-82
2023/12/18 03:39:52;;;;;;;28.25;7.35;;;9.20;99.90;;;7.87;100.00;102023.91;6279680;22;20019;-82
2023/12/18 03:42:27;;;;;;;25.60;7.47;;;9.20;99.90;;;7.81;100.00;102024.84;6278605;22;20111;-82
2023/12/18 03:44:53;;;;;;;25.15;6.75;;;9.20;99.90;;;7.80;100.00;102021.38;6251876;22;20012;-82
2023/12/18 03:47:21;;;;;;;28.33;7.43;;;9.20;99.90;;;7.81;100.00;102024.84;6251028;22;20004;-82
2023/12/18 03:49:55;;;;;;;35.63;7.90;;;9.10;99.90;;;7.78;100.00;102032.78;6278325;22;20038;-83
2023/12/18 03:52:21;;;;;;;32.83;8.38;;;9.10;99.90;;;7.77;100.00;102023.16;6251025;22;20004;-82
2023/12/18 03:54:57;;;;;;;;;;;;;;;;;;;;;
2023/12/18 03:57:24;;;;;;;33.65;8.90;;;9.10;99.90;;;7.83;100.00;102030.06;6279146;22;20056;-82
2023/12/18 03:59:49;;;;;;;28.73;7.97;;;9.20;99.90;;;7.84;100.00;102029.16;6251766;22;20023;-83
2023/12/18 04:02:15;;;;;;;33.03;7.97;;;9.20;99.90;;;7.82;100.00;102029.22;6278969;22;20466;-81
2023/12/18 04:04:41;;;;;;;31.00;7.90;;;9.10;99.90;;;7.81;100.00;102024.84;6251320;22;20004;-82
2023/12/18 04:07:16;;;;;;;34.40;8.48;;;9.10;99.90;;;7.77;100.00;102021.38;6226129;22;20087;-83
2023/12/18 04:09:42;;;;;;;30.67;8.60;;;9.20;99.90;;;7.82;100.00;102029.22;6251748;22;20004;-82
2023/12/18 04:12:08;;;;;;;33.85;9.05;;;9.20;99.90;;;7.82;100.00;102023.97;6278590;22;20087;-82
2023/12/18 04:14:41;;;;;;;32.70;8.70;;;8.40;99.90;;;7.84;100.00;102042.28;6250610;22;20041;-82
2023/12/18 04:17:07;;;;;;;35.15;9.98;;;9.20;99.90;;;7.81;100.00;102038.81;6277518;22;20000;-83
2023/12/18 04:19:33;;;;;;;32.45;9.73;;;9.20;99.90;;;7.79;100.00;102040.59;6278359;22;20027;-82
2023/12/18 04:21:58;;;;;;;31.85;9.25;;;9.20;99.90;;;7.81;100.00;102043.19;6277992;22;20053;-83
2023/12/18 04:24:24;;;;;;;31.50;11.00;;;9.10;99.90;;;7.78;100.00;102045.88;6277030;22;20004;-82
2023/12/18 04:26:59;;;;;;;35.50;10.32;;;9.10;99.90;;;7.77;100.00;102046.75;6277395;22;20083;-83
2023/12/18 04:29:25;;;;;;;36.63;10.77;;;9.10;99.90;;;7.76;100.00;102047.66;6252003;22;20015;-81
2023/12/18 04:31:51;;;;;;;35.55;11.52;;;9.10;99.90;;;7.80;100.00;102050.22;6251628;22;20031;-83
2023/12/18 04:34:24;;;;;;;37.40;10.63;;;9.10;99.90;;;7.76;100.00;102043.28;6273965;22;20059;-81
2023/12/18 04:36:50;;;;;;;31.48;10.88;;;9.20;99.90;;;7.84;100.00;102047.53;6277273;22;20078;-80
2023/12/18 04:39:16;;;;;;;33.58;11.15;;;9.10;99.90;;;7.78;100.00;102049.38;6251763;22;20018;-80
2023/12/18 04:41:42;;;;;;;33.65;11.48;;;9.10;99.90;;;7.79;100.00;102050.22;6253541;22;20343;-81
2023/12/18 04:44:19;;;;;;;35.63;11.13;;;9.10;99.90;;;7.76;100.00;102051.13;6277583;22;20010;-80
2023/12/18 04:46:46;;;;;;;34.20;11.63;;;9.10;99.90;;;7.80;100.00;102059.84;6277518;22;20004;-80
2023/12/18 04:49:13;;;;;;;42.83;11.85;;;9.10;99.90;;;7.77;100.00;102054.63;6251485;22;20004;-80
2023/12/18 04:51:45;;;;;;;39.13;11.57;;;9.10;99.90;;;7.78;100.00;102059.84;6249276;22;20003;-81
2023/12/18 04:54:11;;;;;;;34.70;11.80;;;9.10;99.90;;;7.78;100.00;102051.13;6275585;22;20020;-81
2023/12/18 04:56:39;;;;;;;32.05;11.80;;;9.10;99.90;;;7.77;100.00;102049.38;6248837;22;20092;-80
2023/12/18 04:59:06;;;;;;;39.45;11.40;;;9.10;99.90;;;7.71;100.00;102045.09;6249282;22;20004;-80
2023/12/18 05:01:37;;;;;;;32.65;12.07;;;9.10;99.90;;;7.69;100.00;102040.75;6276354;22;20011;-79
2023/12/18 05:04:03;;;;;;;34.85;13.02;;;9.00;99.90;;;7.67;100.00;102034.69;6249734;22;20060;-80
2023/12/18 05:06:29;;;;;;;38.42;12.70;;;9.00;99.90;;;7.64;100.00;102037.31;6277088;22;20427;-80
2023/12/18 05:08:55;;;;;;;34.10;11.70;;;9.00;99.90;;;7.65;100.00;102039.94;6249050;22;20451;-80
2023/12/18 05:11:30;;;;;;;38.88;12.35;;;9.00;99.90;;;7.65;100.00;102045.19;6248837;22;20015;-80
2023/12/18 05:13:56;;;;;;;37.70;12.98;;;9.00;99.90;;;7.60;100.00;102045.25;6249000;22;20015;-80
2023/12/18 05:16:22;;;;;;;36.20;12.48;;;9.00;99.90;;;7.61;100.00;102035.63;6248255;22;20016;-80
2023/12/18 05:19:00;;;;;;;32.92;12.30;;;9.00;99.90;;;7.61;100.00;102040.84;6275430;22;20008;-80
2023/12/18 05:21:35;;;;;;;;;;;;;;;;;;;;;
2023/12/18 05:24:01;;;;;;;45.80;14.15;;;8.90;99.90;;;7.57;100.00;102054.88;6250485;22;20055;-81
2023/12/18 05:26:29;;;;;;;37.28;14.13;;;8.90;99.90;;;7.56;100.00;102053.16;6247162;22;20550;-81
2023/12/18 05:29:03;;;;;;;43.22;13.85;;;8.90;99.90;;;7.56;100.00;102056.66;6275110;22;20069;-81
2023/12/18 05:31:29;;;;;;;41.97;14.65;;;8.90;99.90;;;7.53;100.00;102048.81;6223866;22;20074;-81
2023/12/18 05:33:55;;;;;;;44.33;14.48;;;8.90;99.90;;;7.53;100.00;102050.56;6272715;22;20356;-82
2023/12/18 05:36:20;;;;;;;40.33;14.35;;;8.90;99.90;;;7.53;100.00;102058.44;6246415;22;20019;-81
2023/12/18 05:38:46;;;;;;;36.60;13.52;;;8.90;99.90;;;7.54;100.00;102060.19;6275304;22;19999;-80
2023/12/18 05:41:12;;;;;;;38.13;14.68;;;8.90;99.90;;;7.54;100.00;102053.19;6273947;22;20309;-80
2023/12/18 05:43:49;;;;;;;28.35;14.20;;;8.90;99.90;;;7.51;100.00;102050.56;6247519;22;20010;-82
2023/12/18 05:46:15;;;;;;;41.15;12.88;;;8.80;99.90;;;7.49;100.00;102068.06;6216329;23;20023;-83
2023/12/18 05:48:40;;;;;;;31.65;13.20;;;8.90;99.90;;;7.47;100.00;102056.75;6244300;23;20078;-82
2023/12/18 05:51:21;;;;;;;38.08;14.77;;;8.80;99.90;;;7.45;100.00;102058.53;6245073;23;20705;-82
2023/12/18 05:56:20;;;;;;;36.20;14.45;;;8.80;99.90;;;7.48;100.00;102063.75;6272948;22;20030;-82
2023/12/18 05:58:58;;;;;;;;;;;;;;;;;;;;;
2023/12/18 06:01:27;;;;;;;42.10;15.27;;;8.90;99.90;;;7.52;100.00;102061.97;6249677;22;20086;-81
2023/12/18 06:03:52;;;;;;;34.90;14.10;;;8.80;99.90;;;7.51;100.00;102068.94;6246889;22;20035;-81
2023/12/18 06:06:27;;;;;;;38.65;15.25;;;8.90;99.90;;;7.50;100.00;102064.59;6274230;22;19999;-82
2023/12/18 06:08:53;;;;;;;46.85;14.63;;;8.90;99.90;;;7.50;100.00;102059.34;6278640;22;20030;-82
2023/12/18 06:11:19;;;;;;;41.63;14.23;;;8.80;99.90;;;7.45;100.00;102071.66;6282946;22;20448;-82
2023/12/18 06:13:52;;;;;;;37.38;15.05;;;8.80;99.90;;;7.47;100.00;102067.22;6246985;22;20394;-81
2023/12/18 06:16:20;;;;;;;41.38;15.05;;;8.80;99.90;;;7.52;100.00;102072.44;6274772;22;20007;-80
2023/12/18 06:18:56;;;;;;;42.80;15.55;;;8.80;99.90;;;7.49;100.00;102069.84;6274633;22;20004;-80
2023/12/18 06:21:22;;;;;;;34.70;13.40;;;8.80;99.90;;;7.49;100.00;102075.94;6274667;22;20012;-82
2023/12/18 06:23:50;;;;;;;43.35;14.68;;;8.80;99.90;;;7.43;100.00;102062.03;6248394;22;20057;-81
2023/12/18 06:26:25;;;;;;;38.28;15.05;;;8.80;99.90;;;7.44;100.00;102074.28;6247708;22;20094;-81
2023/12/18 06:28:51;;;;;;;45.35;15.25;;;8.80;99.90;;;7.46;100.00;102076.00;6250300;22;20003;-80
2023/12/18 06:31:19;;;;;;;43.53;15.48;;;;;;;7.45;100.00;102068.13;6275731;22;20026;-82
2023/12/18 06:33:52;;;;;;;44.78;16.52;;;8.80;99.90;;;7.45;100.00;102078.63;6273188;22;20075;-81
2023/12/18 06:36:19;;;;;;;39.53;15.23;;;8.80;99.90;;;7.45;100.00;102074.28;6272945;22;20008;-81
2023/12/18 06:38:45;;;;;;;43.70;15.65;;;8.80;99.90;;;7.41;100.00;102077.81;6273874;22;20012;-81
2023/12/18 06:41:11;;;;;;;41.25;15.05;;;8.80;99.90;;;7.44;100.00;102079.53;6275192;22;20018;-81
2023/12/18 06:43:47;;;;;;;43.88;15.90;;;8.80;99.90;;;7.40;100.00;102078.69;6274255;22;20401;-82
2023/12/18 06:46:13;;;;;;;39.97;16.65;;;8.70;99.90;;;7.38;100.00;102081.31;6272983;22;20007;-81
2023/12/18 06:48:42;;;;;;;41.47;17.52;;;8.80;99.90;;;7.39;100.00;102076.97;6273823;22;20051;-82
2023/12/18 06:51:21;;;;;;;48.55;16.20;;;;;;;7.38;100.00;102083.06;6249613;22;20339;-82
2023/12/18 06:53:54;;;;;;;40.10;16.23;;;8.70;99.90;;;7.35;100.00;102081.34;6276505;22;20003;-83
2023/12/18 06:56:20;;;;;;;44.17;17.13;;;8.70;99.90;;;7.38;100.00;102083.94;6248787;22;20061;-81
2023/12/18 06:58:48;;;;;;;41.78;17.10;;;8.70;99.90;;;7.38;100.00;102091.78;6226171;22;20720;-81
2023/12/18 07:01:34;;;;;;;;;;;;;;;;;;;;;
2023/12/18 07:04:02;;;;;;;46.10;17.43;;;8.80;99.90;;;7.43;100.00;102094.38;6276850;22;20088;-82
2023/12/18 07:06:29;;;;;;;39.67;17.63;;;;;;;7.43;100.00;102097.00;6252398;22;20011;-82
2023/12/18 07:08:56;;;;;;;60.72;16.77;;;8.70;99.90;;;7.38;100.00;102096.16;6278809;22;20351;-82
2023/12/18 07:11:21;;;;;;;40.15;16.75;;;8.80;99.90;;;7.36;100.00;102100.56;6277517;22;20024;-82
2023/12/18 07:14:10;;;;;;;36.60;15.75;;;8.70;99.90;;;7.36;100.00;102095.31;6277182;22;20601;-83
2023/12/18 07:16:39;;;;;;;43.17;17.10;;;8.70;99.90;;;7.38;100.00;102104.03;6250429;22;20000;-81
2023/12/18 07:19:05;;;;;;;37.22;16.67;;;8.70;99.90;;;7.35;100.00;102106.69;6277491;22;20050;-82
2023/12/18 07:21:39;;;;;;;40.67;16.52;;;8.70;99.90;;;7.35;100.00;102114.56;6249840;22;20007;-82
2023/12/18 07:24:08;;;;;;;38.78;16.67;;;8.70;99.90;;;7.34;100.00;102108.47;6250242;22;20008;-82
2023/12/18 07:26:33;;;;;;;41.40;16.70;;;8.70;99.90;;;7.35;100.00;102112.81;6276098;22;20004;-82
2023/12/18 07:29:22;;;;;;;46.95;19.45;;;8.70;99.90;;;7.33;100.00;102108.47;6277116;22;20401;-82
2023/12/18 07:31:50;;;;;;;41.55;18.15;;;;;;;7.28;100.00;102107.63;6275434;22;20021;-82
2023/12/18 07:34:23;;;;;;;49.40;18.88;;;8.70;99.90;;;7.31;100.00;102102.38;6275192;22;20091;-82
2023/12/18 07:36:50;;;;;;;42.17;16.50;;;8.70;99.90;;;7.27;100.00;102103.28;6276310;22;20086;-82
2023/12/18 07:39:20;;;;;;;40.40;16.40;;;8.70;99.90;;;7.26;100.00;102093.72;6277888;22;20419;-82
2023/12/18 07:41:53;;;;;;;47.78;16.70;;;8.60;99.90;;;7.24;100.00;102096.34;6248717;22;20011;-82
2023/12/18 07:44:21;;;;;;;40.83;16.25;;;8.60;99.90;;;7.25;100.00;102086.72;6276848;22;20003;-83
2023/12/18 07:46:50;;;;;;;37.20;16.30;;;8.60;99.90;;;7.24;100.00;102090.25;6250470;22;20004;-83
2023/12/18 07:50:01;;;;;;;36.05;17.10;;;8.60;99.90;;;7.21;100.00;102098.97;6225165;22;20138;-82
2023/12/18 07:52:34;;;;;;;38.30;16.75;;;8.60;99.90;;;7.21;100.00;102098.97;6252638;22;20015;-83
2023/12/18 07:55:00;;;;;;;35.17;16.15;;;8.60;99.90;;;7.22;100.00;102099.88;6249613;22;20018;-82
2023/12/18 07:57:26;;;;;;;31.00;16.13;;;8.60;99.90;;;7.19;100.00;102092.88;6224241;22;20007;-83
2023/12/18 07:59:54;;;;;;;35.40;16.48;;;8.60;99.90;;;7.19;100.00;102087.63;6277184;22;20030;-83
2023/12/18 08:02:40;;;;;;;39.28;16.23;;;8.60;99.90;;;7.21;100.00;102096.34;6249625;22;20687;-83
2023/12/18 08:05:08;;;;;;;36.63;16.85;;;8.60;99.90;;;7.21;100.00;102098.97;6276215;22;20019;-82
2023/12/18 08:07:36;;;;;;;41.55;17.80;;;;;;;7.23;100.00;102104.22;6276726;22;20003;-81
2023/12/18 08:10:09;;;;;;;43.65;18.20;;;8.60;99.90;;;7.25;100.00;102100.69;6248864;22;20004;-82
2023/12/18 08:12:45;;;;;;;;;;;;;;;;;;;;;
2023/12/18 08:15:17;;;;;;;41.63;17.15;;;8.60;99.90;;;7.27;100.00;102106.78;6275537;22;20067;-82
2023/12/18 08:17:43;;;;;;;35.47;16.83;;;8.70;99.90;;;7.32;100.00;102118.09;6276163;22;20012;-82
2023/12/18 08:20:19;;;;;;;;;;;;;;;;;;;;;
2023/12/18 08:22:45;;;;;;;45.03;18.08;;;8.70;99.90;;;7.33;100.00;102108.47;6251106;22;20083;-81
2023/12/18 08:25:11;;;;;;;33.22;16.77;;;8.70;99.90;;;7.34;100.00;102103.22;6276994;22;20002;-81
2023/12/18 08:27:37;;;;;;;39.00;18.08;;;8.70;99.90;;;7.33;100.00;102104.09;6275800;22;20008;-83
2023/12/18 08:30:30;;;;;;;40.25;17.95;;;8.70;99.90;;;7.34;100.00;102087.50;6248803;22;20004;-82
2023/12/18 08:32:56;;;;;;;36.88;15.68;;;8.70;99.90;;;7.32;100.00;102086.66;6267596;22;20007;-83
2023/12/18 08:35:30;;;;;;;42.47;16.95;;;8.70;99.90;;;7.31;100.00;102091.91;6248925;22;20015;-83
2023/12/18 08:37:58;;;;;;;36.55;16.35;;;8.70;99.90;;;7.29;100.00;102091.03;6277810;22;20056;-83
2023/12/18 08:40:24;;;;;;;39.05;16.83;;;8.70;99.90;;;7.31;100.00;102084.03;6224741;22;20007;-82
2023/12/18 08:43:13;;;;;;;29.45;15.82;;;8.70;99.90;;;7.33;100.00;102077.88;6250591;22;20329;-82
2023/12/18 08:45:42;;;;;;;39.97;16.00;;;8.70;99.90;;;7.32;100.00;102081.41;6263094;22;20012;-83
2023/12/18 08:48:25;;;;;;;47.65;16.83;;;8.70;99.90;;;7.31;100.00;102082.28;6278058;22;20359;-83
2023/12/18 08:51:00;;;;;;;37.28;16.08;;;8.70;99.90;;;7.33;100.00;102077.88;6251085;22;20079;-83
2023/12/18 08:53:26;;;;;;;40.20;15.73;;;;;;;7.32;100.00;102080.50;6250009;22;20466;-82
2023/12/18 08:55:52;;;;;;;40.78;16.85;;;8.70;99.90;;;7.33;100.00;102082.25;6276747;22;20011;-82
2023/12/18 08:58:25;;;;;;;35.65;15.88;;;8.70;99.90;;;7.34;100.00;102073.50;6277706;22;20447;-82
2023/12/18 09:00:54;;;;;;;40.63;16.67;;;8.70;99.90;;;7.34;100.00;102087.50;6251661;22;20011;-82
2023/12/18 09:03:20;;;;;;;37.75;16.40;;;8.70;99.90;;;7.30;100.00;102071.81;6249260;22;20004;-82
2023/12/18 09:06:12;;;;;;;33.63;14.15;;;8.70;99.90;;;7.31;100.00;102079.66;6224249;22;20008;-82
2023/12/18 09:11:35;;;;;;;30.05;15.07;;;8.70;99.90;;;7.32;100.00;102088.38;6263946;22;20007;-83
2023/12/18 09:14:12;;;;;;;47.72;18.50;;;8.70;99.90;;;7.33;100.00;102092.75;6246247;22;20018;-82
2023/12/18 09:16:40;;;;;;;40.30;18.38;;;8.70;99.90;;;7.35;100.00;102099.69;6250877;22;20014;-82
2023/12/18 09:19:20;;;;;;;37.08;16.35;;;8.70;99.90;;;7.38;100.00;102111.91;6276749;22;20082;-83
2023/12/18 09:21:55;;;;;;;37.60;16.55;;;8.70;99.90;;;7.38;100.00;102110.13;6248354;22;20078;-82
2023/12/18 09:24:22;;;;;;;37.28;17.02;;;8.70;99.90;;;7.39;100.00;102118.88;6248275;22;20031;-83
2023/12/18 09:27:00;;;;;;;47.05;17.25;;;8.70;99.90;;;7.36;100.00;102119.78;6274578;22;20073;-82
2023/12/18 09:29:36;;;;;;;;;;;;;;;;;;;;;
2023/12/18 09:32:03;;;;;;;41.88;18.05;;;8.70;99.90;;;7.34;100.00;102118.06;6251200;22;20095;-81
2023/12/18 09:34:31;;;;;;;33.08;16.60;;;8.70;99.90;;;7.36;100.00;102109.31;6274636;22;20007;-82
2023/12/18 09:37:07;;;;;;;40.17;16.63;;;8.70;99.90;;;7.40;100.00;102110.13;6275258;22;20015;-82
2023/12/18 09:39:33;;;;;;;;;;;8.70;99.90;;;7.37;100.00;102099.69;6249681;22;20522;-83
2023/12/18 09:42:01;;;;;;;40.17;17.37;;;8.70;99.90;;;7.37;100.00;102102.31;6248979;22;19929;-83
2023/12/18 09:44:39;;;;;;;35.88;15.48;;;8.70;99.90;;;7.36;100.00;102087.47;6275130;22;20415;-83
2023/12/18 09:47:24;;;;;;;;;;;;;;;;;;;;;
2023/12/18 09:49:56;;;;;;;40.55;17.83;;;8.70;99.90;;;7.40;100.00;102094.41;6251829;22;20084;-81
2023/12/18 09:52:23;;;;;;;44.33;18.45;;;8.70;99.90;;;7.39;100.00;102096.16;6274303;22;20016;-82
2023/12/18 09:55:01;;;;;;;35.65;15.82;;;8.70;99.90;;;7.39;100.00;102100.53;6244622;22;20442;-81
2023/12/18 09:57:40;;;;;;;31.00;16.30;;;8.80;99.90;;;7.40;100.00;102097.03;6274450;22;20004;-83
2023/12/18 10:00:33;;;;;;;37.58;17.67;;;8.80;99.90;;;7.48;100.00;102094.31;6224672;22;20443;-82
2023/12/18 10:03:02;;;;;;;38.17;17.45;;;8.80;99.90;;;7.45;100.00;102094.34;6237477;22;20069;-82
2023/12/18 10:05:53;;;;;;;38.53;18.27;;;8.80;99.90;;;7.47;100.00;102096.06;6247580;22;20008;-82
2023/12/18 10:08:21;;;;;;;45.17;17.98;;;8.80;99.90;;;7.44;100.00;102095.25;6259558;22;20030;-82
2023/12/18 10:11:03;;;;;;;41.58;17.67;;;8.80;99.90;;;7.45;100.00;102099.59;6275089;22;20004;-82
2023/12/18 10:13:55;;;;;;;31.20;17.15;;;8.80;99.90;;;7.46;100.00;102098.72;6223913;22;20006;-82
2023/12/18 10:16:22;;;;;;;33.40;16.38;;;;;;;7.36;100.00;102087.47;6256188;22;20463;-84
2023/12/18 10:19:02;;;;;;;38.40;17.92;;;;;;;7.38;100.00;102094.41;6281450;22;20004;-83
2023/12/18 10:22:12;;;;;;;43.60;19.95;;;8.80;99.90;;;7.42;100.00;102091.78;6256258;22;20011;-83
2023/12/18 10:25:10;;;;;;;44.17;18.55;;;8.80;99.90;;;7.37;100.00;102087.44;6280124;22;20011;-83
2023/12/18 10:27:51;;;;;;;42.25;18.13;;;8.70;99.90;;;7.38;100.00;102090.94;6275621;22;20047;-83
2023/12/18 10:30:29;;;;;;;42.67;18.70;;;8.70;99.90;;;7.40;100.00;102089.16;6274701;22;20015;-83
2023/12/18 10:33:49;;;;;;;;;;;;;;;;;;;;;
2023/12/18 10:35:50;;;;;;;41.40;19.83;;;;;;;7.46;100.00;102099.56;6232515;22;20011;-83
2023/12/18 10:39:12;;;;;;;42.88;20.42;;;8.80;99.90;;;7.51;100.00;102097.75;6275155;22;20448;-83
2023/12/18 10:41:44;;;;;;;40.70;19.10;;;8.80;99.90;;;7.48;100.00;102081.22;6249238;22;20490;-83
2023/12/18 10:44:19;;;;;;;44.15;18.83;;;8.80;99.90;;;7.47;100.00;102090.81;6272879;22;20010;-83
2023/12/18 10:46:49;;;;;;;46.03;20.00;;;8.80;99.90;;;7.49;100.00;102080.31;6247950;22;20004;-83
2023/12/18 10:49:39;;;;;;;;;;;;;;;;;;;;;
2023/12/18 10:52:22;;;;;;;52.05;20.50;;;8.80;99.90;;;7.48;100.00;102081.22;6248986;22;20111;-83
2023/12/18 10:55:20;;;;;;;43.20;19.25;;;8.80;99.90;;;7.44;100.00;102074.28;6219831;23;20483;-83
2023/12/18 10:58:06;;;;;;;;;;;;;;;;;;;;;
2023/12/18 11:00:33;;;;;;;45.45;20.17;;;8.80;99.90;;;7.43;100.00;102065.56;6243560;23;20071;-83
2023/12/18 11:03:12;;;;;;;40.33;18.00;;;8.80;99.90;;;7.44;100.00;102062.03;6241804;23;20708;-83
2023/12/18 11:05:40;;;;;;;41.30;18.55;;;8.80;99.90;;;7.49;100.00;102068.06;6218381;23;20325;-83
2023/12/18 11:08:10;;;;;;;37.60;17.48;;;8.80;99.90;;;7.45;100.00;102061.16;6215588;23;20005;-83
2023/12/18 11:10:48;;;;;;;46.72;19.98;;;8.80;99.90;;;7.47;100.00;102063.75;6217823;22;20008;-82
2023/12/18 11:13:29;;;;;;;45.55;18.83;;;8.90;99.90;;;7.48;100.00;102058.50;6216736;23;20019;-82
2023/12/18 11:16:38;;;;;;;41.88;16.92;;;8.80;99.90;;;7.46;100.00;102065.50;6243150;23;20008;-83
2023/12/18 11:19:43;;;;;;;39.95;17.42;;;8.80;99.90;;;7.45;100.00;102058.53;6242893;23;20011;-83
2023/12/18 11:22:15;;;;;;;39.92;18.38;;;8.80;99.90;;;7.47;100.00;102064.59;6222073;23;20356;-84
2023/12/18 11:24:47;;;;;;;41.50;18.65;;;8.80;99.90;;;7.48;100.00;102053.25;6214504;23;20075;-83
2023/12/18 11:27:17;;;;;;;38.38;17.73;;;8.80;99.90;;;7.44;100.00;102048.94;6216057;23;20008;-83